createdAt,value
2018-11-27T00:00:33.204Z,19.87
2018-11-27T00:02:59.486Z,19.90
2018-11-27T00:05:25.772Z,19.53
2018-11-27T00:07:52.747Z,21.00
2018-11-27T00:10:19.060Z,20.27
2018-11-27T00:12:45.341Z,21.10
2018-11-27T00:15:11.633Z,20.33
2018-11-27T00:17:37.916Z,19.80
2018-11-27T00:20:04.204Z,19.77
2018-11-27T00:22:30.525Z,20.33
2018-11-27T00:24:56.745Z,21.00
2018-11-27T00:27:22.991Z,20.37
2018-11-27T00:29:49.208Z,21.33
2018-11-27T00:32:15.477Z,20.20
2018-11-27T00:34:41.711Z,21.63
2018-11-27T00:37:08.000Z,21.07
2018-11-27T00:39:34.220Z,20.53
2018-11-27T00:42:00.490Z,21.23
2018-11-27T00:44:26.736Z,20.67
2018-11-27T00:46:53.771Z,20.70
2018-11-27T00:49:20.018Z,20.60
2018-11-27T00:51:47.001Z,21.87
2018-11-27T00:54:13.245Z,21.27
2018-11-27T00:56:39.501Z,22.87
2018-11-27T00:59:05.873Z,21.20
2018-11-27T01:01:32.104Z,21.53
2018-11-27T01:03:58.396Z,20.07
2018-11-27T01:06:24.617Z,21.77
2018-11-27T01:08:50.885Z,21.87
2018-11-27T01:11:17.159Z,20.33
2018-11-27T01:13:43.420Z,22.30
2018-11-27T01:16:10.416Z,21.47
2018-11-27T01:18:36.691Z,20.80
2018-11-27T01:21:03.743Z,22.03
2018-11-27T01:23:30.108Z,20.63
2018-11-27T01:25:56.364Z,21.40
2018-11-27T01:28:23.362Z,22.23
2018-11-27T01:30:49.617Z,20.87
2018-11-27T01:33:15.869Z,21.60
2018-11-27T01:35:42.210Z,21.70
2018-11-27T01:38:08.473Z,22.70
2018-11-27T01:40:34.740Z,20.97
2018-11-27T01:43:00.989Z,22.20
2018-11-27T01:45:27.296Z,21.83
2018-11-27T01:47:54.350Z,22.63
2018-11-27T01:50:20.659Z,22.57
2018-11-27T01:52:46.937Z,21.57
2018-11-27T01:55:13.983Z,22.37
2018-11-27T01:57:41.038Z,21.30
2018-11-27T02:00:08.093Z,23.27
2018-11-27T02:02:34.381Z,22.67
2018-11-27T02:05:00.672Z,22.17
2018-11-27T02:07:26.930Z,23.80
2018-11-27T02:09:53.297Z,24.17
2018-11-27T02:12:20.284Z,24.07
2018-11-27T02:14:46.545Z,22.63
2018-11-27T02:17:12.848Z,24.53
2018-11-27T02:19:39.145Z,23.50
2018-11-27T02:22:05.489Z,24.13
2018-11-27T02:24:31.794Z,23.83
2018-11-27T02:26:58.835Z,24.23
2018-11-27T02:29:25.834Z,23.27
2018-11-27T02:31:52.119Z,24.50
2018-11-27T02:34:18.396Z,23.63
2018-11-27T02:36:44.671Z,24.13
2018-11-27T02:39:11.681Z,23.33
2018-11-27T02:41:38.741Z,24.60
2018-11-27T02:44:05.062Z,25.07
2018-11-27T02:46:31.334Z,24.63
2018-11-27T02:48:58.404Z,24.27
2018-11-27T02:51:24.716Z,24.20
2018-11-27T02:53:51.017Z,24.93
2018-11-27T02:56:17.244Z,23.53
2018-11-27T02:58:43.552Z,24.73
2018-11-27T03:01:09.774Z,24.80
2018-11-27T03:03:36.021Z,23.47
2018-11-27T03:06:02.308Z,25.03
2018-11-27T03:08:28.517Z,23.37
2018-11-27T03:10:54.766Z,24.60
2018-11-27T03:13:20.996Z,22.97
2018-11-27T03:15:47.248Z,24.20
2018-11-27T03:18:13.545Z,24.30
2018-11-27T03:20:39.833Z,24.23
2018-11-27T03:23:06.871Z,22.87
2018-11-27T03:25:33.860Z,24.20
2018-11-27T03:28:00.152Z,22.73
2018-11-27T03:30:28.104Z,22.07
2018-11-27T03:32:55.125Z,22.57
2018-11-27T03:35:21.375Z,21.83
2018-11-27T03:37:47.760Z,23.17
2018-11-27T03:40:13.984Z,22.77
2018-11-27T03:42:40.266Z,22.40
2018-11-27T03:45:06.608Z,22.33
2018-11-27T03:47:33.586Z,22.03
2018-11-27T03:49:59.824Z,23.43
2018-11-27T03:52:26.073Z,22.60
2018-11-27T03:54:52.343Z,21.30
2018-11-27T03:57:18.631Z,20.27
2018-11-27T03:59:44.860Z,21.30
2018-11-27T04:02:11.102Z,21.97
2018-11-27T04:04:37.341Z,20.77
2018-11-27T04:07:04.334Z,22.30
2018-11-27T04:09:30.608Z,20.37
2018-11-27T04:11:56.836Z,21.03
2018-11-27T04:14:23.079Z,20.77
2018-11-27T04:16:50.064Z,20.63
2018-11-27T04:19:17.149Z,21.03
2018-11-27T04:21:44.427Z,20.27
2018-11-27T04:24:10.674Z,19.87
2018-11-27T04:26:36.923Z,20.90
2018-11-27T04:29:03.228Z,19.00
2018-11-27T04:31:29.492Z,17.77
2018-11-27T04:33:55.735Z,19.50
2018-11-27T04:36:22.890Z,19.33
2018-11-27T04:38:49.116Z,19.40
2018-11-27T04:41:16.111Z,19.83
2018-11-27T04:43:42.344Z,19.07
2018-11-27T04:46:08.651Z,19.40
2018-11-27T04:48:34.958Z,18.77
2018-11-27T04:51:01.952Z,20.60
2018-11-27T04:53:28.203Z,19.63
2018-11-27T04:55:54.472Z,19.33
2018-11-27T04:58:21.452Z,19.50
2018-11-27T05:00:47.721Z,18.80
2018-11-27T05:03:13.981Z,18.37
2018-11-27T05:05:40.977Z,19.70
2018-11-27T05:08:07.219Z,18.50
2018-11-27T05:10:33.452Z,19.60
2018-11-27T05:13:00.454Z,20.37
2018-11-27T05:15:28.245Z,19.27
2018-11-27T05:17:54.491Z,19.93
2018-11-27T05:20:20.764Z,19.60
2018-11-27T05:22:46.992Z,20.47
2018-11-27T05:25:13.290Z,19.30
2018-11-27T05:27:40.299Z,20.10
2018-11-27T05:30:06.582Z,19.67
2018-11-27T05:32:32.837Z,19.73
2018-11-27T05:34:59.061Z,19.03
2018-11-27T05:37:25.339Z,19.43
2018-11-27T05:39:52.333Z,20.10
2018-11-27T05:42:18.590Z,20.43
2018-11-27T05:44:44.816Z,18.50
2018-11-27T05:47:11.057Z,20.20
2018-11-27T05:49:37.265Z,18.40
2018-11-27T05:52:03.529Z,19.73
2018-11-27T05:54:30.541Z,19.73
2018-11-27T05:56:56.747Z,19.03
2018-11-27T05:59:22.982Z,20.30
2018-11-27T06:01:49.961Z,18.67
2018-11-27T06:04:16.990Z,18.50
2018-11-27T06:06:43.233Z,20.23
2018-11-27T06:09:09.478Z,20.10
2018-11-27T06:11:35.756Z,20.27
2018-11-27T06:14:02.069Z,18.63
2018-11-27T06:16:28.304Z,20.07
2018-11-27T06:18:54.568Z,20.03
2018-11-27T06:21:20.897Z,20.47
2018-11-27T06:23:47.155Z,19.10
2018-11-27T06:26:13.457Z,22.43
2018-11-27T06:28:39.709Z,22.33
2018-11-27T06:31:05.956Z,18.30
2018-11-27T06:33:32.254Z,20.40
2018-11-27T06:35:59.244Z,21.70
2018-11-27T06:38:25.484Z,20.53
2018-11-27T06:40:51.726Z,21.33
2018-11-27T06:43:17.986Z,22.73
2018-11-27T06:45:45.013Z,22.30
2018-11-27T06:48:11.272Z,21.97
2018-11-27T06:50:38.273Z,22.93
2018-11-27T06:53:04.578Z,22.03
2018-11-27T06:55:30.855Z,22.37
2018-11-27T06:57:57.831Z,23.40
2018-11-27T07:00:24.121Z,23.27
2018-11-27T07:02:51.173Z,22.40
2018-11-27T07:05:17.516Z,21.70
2018-11-27T07:07:44.513Z,23.67
2018-11-27T07:10:10.799Z,20.83
2018-11-27T07:12:37.072Z,23.63
2018-11-27T07:15:03.333Z,21.67
2018-11-27T07:17:29.613Z,23.50
2018-11-27T07:19:55.838Z,21.60
2018-11-27T07:22:22.948Z,22.23
2018-11-27T07:24:49.933Z,21.50
2018-11-27T07:27:16.165Z,25.97
2018-11-27T07:29:42.452Z,23.20
2018-11-27T07:32:09.684Z,23.27
2018-11-27T07:34:35.754Z,22.53
2018-11-27T07:37:02.005Z,26.47
2018-11-27T07:39:28.272Z,23.43
2018-11-27T07:41:55.239Z,23.47
2018-11-27T07:44:21.484Z,22.47
2018-11-27T07:46:47.706Z,21.70
2018-11-27T07:49:13.997Z,21.37
2018-11-27T07:51:40.984Z,22.87
2018-11-27T07:54:07.377Z,21.93
2018-11-27T07:56:34.377Z,20.80
2018-11-27T07:59:00.669Z,22.07
2018-11-27T08:04:00.730Z,21.07
2018-11-27T08:06:27.000Z,20.37
2018-11-27T08:08:53.265Z,21.47
2018-11-27T08:11:19.532Z,20.30
2018-11-27T08:13:46.594Z,20.27
2018-11-27T08:16:12.868Z,20.53
2018-11-27T08:18:39.133Z,21.67
2018-11-27T08:21:05.527Z,21.27
2018-11-27T08:23:31.804Z,21.73
2018-11-27T08:25:58.077Z,20.00
2018-11-27T08:28:24.318Z,20.33
2018-11-27T08:30:50.588Z,21.07
2018-11-27T08:33:16.870Z,20.57
2018-11-27T08:35:43.148Z,20.37
2018-11-27T08:38:09.392Z,21.33
2018-11-27T08:40:35.657Z,20.90
2018-11-27T08:43:01.904Z,20.10
2018-11-27T08:45:28.196Z,20.63
2018-11-27T08:47:55.208Z,19.97
2018-11-27T08:50:21.512Z,20.47
2018-11-27T08:52:47.776Z,21.80
2018-11-27T08:55:14.025Z,19.53
2018-11-27T08:57:40.304Z,20.60
2018-11-27T09:00:06.604Z,21.57
2018-11-27T09:02:32.893Z,20.80
2018-11-27T09:04:59.145Z,22.70
2018-11-27T09:07:25.424Z,20.20
2018-11-27T09:09:51.658Z,20.97
2018-11-27T09:12:17.973Z,21.60
2018-11-27T09:14:44.297Z,20.37
2018-11-27T09:17:10.561Z,21.23
2018-11-27T09:19:37.547Z,21.33
2018-11-27T09:22:03.870Z,23.10
2018-11-27T09:24:30.184Z,21.73
2018-11-27T09:26:56.436Z,21.87
2018-11-27T09:29:22.683Z,21.27
2018-11-27T09:31:48.952Z,20.67
2018-11-27T09:34:15.980Z,20.57
2018-11-27T09:36:42.249Z,21.90
2018-11-27T09:39:08.533Z,20.17
2018-11-27T09:41:34.798Z,21.10
2018-11-27T09:44:01.780Z,21.07
2018-11-27T09:46:28.105Z,21.60
2018-11-27T09:48:54.379Z,20.60
2018-11-27T09:51:20.615Z,22.27
2018-11-27T09:53:47.625Z,20.63
2018-11-27T09:56:13.893Z,20.00
2018-11-27T09:58:40.916Z,21.37
2018-11-27T10:01:07.212Z,20.20
2018-11-27T10:03:33.440Z,20.90
2018-11-27T10:05:59.746Z,21.13
2018-11-27T10:08:26.008Z,20.57
2018-11-27T10:10:52.252Z,20.37
2018-11-27T10:13:19.290Z,19.43
2018-11-27T10:15:46.261Z,21.37
2018-11-27T10:18:12.544Z,20.67
2018-11-27T10:20:38.884Z,23.97
2018-11-27T10:23:05.165Z,20.83
2018-11-27T10:25:32.152Z,19.20
2018-11-27T10:27:58.442Z,20.53
2018-11-27T10:30:24.711Z,19.97
2018-11-27T10:32:51.718Z,20.63
2018-11-27T10:35:18.744Z,22.40
2018-11-27T10:37:45.008Z,21.57
2018-11-27T10:40:11.265Z,19.80
2018-11-27T10:42:39.088Z,21.57
2018-11-27T10:45:05.399Z,21.40
2018-11-27T10:47:32.410Z,21.57
2018-11-27T10:49:58.697Z,22.43
2018-11-27T10:52:25.038Z,21.00
2018-11-27T10:54:51.328Z,22.17
2018-11-27T10:57:17.589Z,22.20
2018-11-27T10:59:43.868Z,20.13
2018-11-27T11:02:10.201Z,19.13
2018-11-27T11:04:36.469Z,21.13
2018-11-27T11:07:02.797Z,20.77
2018-11-27T11:09:29.093Z,20.03
2018-11-27T11:11:59.275Z,20.43
2018-11-27T11:14:21.657Z,20.60
2018-11-27T11:16:47.913Z,21.43
2018-11-27T11:19:18.351Z,20.83
2018-11-27T11:21:42.012Z,23.07
2018-11-27T11:24:08.309Z,22.60
2018-11-27T11:26:35.326Z,22.70
2018-11-27T11:29:01.671Z,22.30
2018-11-27T11:31:28.661Z,24.23
2018-11-27T11:33:54.940Z,23.47
2018-11-27T11:36:21.980Z,22.30
2018-11-27T11:38:48.278Z,21.27
2018-11-27T11:41:14.508Z,20.80
2018-11-27T11:43:40.772Z,21.67
2018-11-27T11:46:07.800Z,22.87
2018-11-27T11:48:34.088Z,22.73
2018-11-27T11:51:00.356Z,23.03
2018-11-27T11:53:26.594Z,22.83
2018-11-27T11:55:53.200Z,23.80
2018-11-27T11:58:19.448Z,24.07
2018-11-27T12:00:45.743Z,22.37
2018-11-27T12:03:12.057Z,25.47
2018-11-27T12:05:39.085Z,23.90
2018-11-27T12:08:06.157Z,24.43
2018-11-27T12:10:32.444Z,24.20
2018-11-27T12:12:58.668Z,23.80
2018-11-27T12:15:25.724Z,22.80
2018-11-27T12:17:51.978Z,23.00
2018-11-27T12:20:18.970Z,24.07
2018-11-27T12:22:45.273Z,24.13
2018-11-27T12:25:11.606Z,22.50
2018-11-27T12:27:37.869Z,23.23
2018-11-27T12:30:04.129Z,24.17
2018-11-27T12:32:31.097Z,23.03
2018-11-27T12:34:57.376Z,23.10
2018-11-27T12:37:24.359Z,24.07
2018-11-27T12:39:50.649Z,24.67
2018-11-27T12:42:16.911Z,24.33
2018-11-27T12:44:43.917Z,27.30
2018-11-27T12:47:10.938Z,24.07
2018-11-27T12:49:37.201Z,23.50
2018-11-27T12:52:03.463Z,24.00
2018-11-27T12:54:30.476Z,24.40
2018-11-27T12:56:56.733Z,24.03
2018-11-27T12:59:22.984Z,24.03
2018-11-27T13:01:49.221Z,23.90
2018-11-27T13:04:15.527Z,23.83
2018-11-27T13:06:41.824Z,24.50
2018-11-27T13:09:08.116Z,24.40
2018-11-27T13:11:34.377Z,23.43
2018-11-27T13:14:00.697Z,34.90
2018-11-27T13:16:26.988Z,29.93
2018-11-27T13:18:53.256Z,26.43
2018-11-27T13:21:19.597Z,25.63
2018-11-27T13:23:45.884Z,25.10
2018-11-27T13:26:12.245Z,24.53
2018-11-27T13:28:38.561Z,23.27
2018-11-27T13:31:04.828Z,22.80
2018-11-27T13:33:31.102Z,23.87
2018-11-27T13:35:57.444Z,23.03
2018-11-27T13:38:23.701Z,22.90
2018-11-27T13:40:49.972Z,23.00
2018-11-27T13:43:16.276Z,23.77
2018-11-27T13:45:43.449Z,32.03
2018-11-27T13:48:09.704Z,25.33
2018-11-27T13:50:37.473Z,24.47
2018-11-27T13:53:05.227Z,23.83
2018-11-27T13:55:31.525Z,25.40
2018-11-27T13:57:57.793Z,24.70
2018-11-27T14:00:24.051Z,23.97
2018-11-27T14:02:51.077Z,24.07
2018-11-27T14:05:17.360Z,23.23
2018-11-27T14:07:43.648Z,26.37
2018-11-27T14:10:09.927Z,24.03
2018-11-27T14:12:36.208Z,23.23
2018-11-27T14:15:03.241Z,23.90
2018-11-27T14:17:29.525Z,23.63
2018-11-27T14:19:55.773Z,24.30
2018-11-27T14:22:25.097Z,23.50
2018-11-27T14:24:48.441Z,22.10
2018-11-27T14:27:14.711Z,23.93
2018-11-27T14:29:41.000Z,23.93
2018-11-27T14:32:07.259Z,24.93
2018-11-27T14:34:34.300Z,24.17
2018-11-27T14:37:01.285Z,23.47
2018-11-27T14:39:27.631Z,24.20
2018-11-27T14:41:53.880Z,23.87
2018-11-27T14:44:20.175Z,22.40
2018-11-27T14:46:46.420Z,22.30
2018-11-27T14:49:12.700Z,24.33
2018-11-27T14:51:39.691Z,24.43
2018-11-27T14:54:05.963Z,24.70
2018-11-27T14:56:33.834Z,24.27
2018-11-27T14:59:00.849Z,24.33
2018-11-27T15:01:27.117Z,24.03
2018-11-27T15:03:53.403Z,27.90
2018-11-27T15:06:19.631Z,25.93
2018-11-27T15:08:46.599Z,25.50
2018-11-27T15:11:12.946Z,25.10
2018-11-27T15:13:39.957Z,25.27
2018-11-27T15:16:06.298Z,26.07
2018-11-27T15:18:32.611Z,24.97
2018-11-27T15:20:58.872Z,24.90
2018-11-27T15:23:25.112Z,25.00
2018-11-27T15:25:52.123Z,24.30
2018-11-27T15:28:18.404Z,24.23
2018-11-27T15:30:44.723Z,23.27
2018-11-27T15:33:10.989Z,23.73
2018-11-27T15:35:37.225Z,25.27
2018-11-27T15:38:03.509Z,24.67
2018-11-27T15:40:29.772Z,25.40
2018-11-27T15:42:56.169Z,23.93
2018-11-27T15:45:22.500Z,24.53
2018-11-27T15:47:49.500Z,25.73
2018-11-27T15:50:15.765Z,23.43
2018-11-27T15:52:42.792Z,21.30
2018-11-27T15:55:09.837Z,21.70
2018-11-27T15:57:36.863Z,22.47
2018-11-27T16:00:03.172Z,22.73
2018-11-27T16:02:29.432Z,22.53
2018-11-27T16:04:55.669Z,22.37
2018-11-27T16:07:21.920Z,23.73
2018-11-27T16:09:48.877Z,23.10
2018-11-27T16:12:15.152Z,29.23
2018-11-27T16:14:41.419Z,24.40
2018-11-27T16:17:08.462Z,23.90
2018-11-27T16:19:34.676Z,24.77
2018-11-27T16:22:01.018Z,24.70
2018-11-27T16:24:28.085Z,33.30
2018-11-27T16:26:54.360Z,24.57
2018-11-27T16:29:20.628Z,22.10
2018-11-27T16:31:47.613Z,23.63
2018-11-27T16:34:13.866Z,24.53
2018-11-27T16:36:42.248Z,24.13
2018-11-27T16:39:08.533Z,24.07
2018-11-27T16:41:34.760Z,25.37
2018-11-27T16:44:01.053Z,25.30
2018-11-27T16:46:28.027Z,26.23
2018-11-27T16:48:54.301Z,24.20
2018-11-27T16:51:20.633Z,24.53
2018-11-27T16:53:46.881Z,23.83
2018-11-27T16:56:13.144Z,23.10
2018-11-27T16:58:39.416Z,23.40
2018-11-27T17:01:09.142Z,23.57
2018-11-27T17:03:31.978Z,24.40
2018-11-27T17:05:58.266Z,24.60
2018-11-27T17:08:24.499Z,23.93
2018-11-27T17:10:50.772Z,24.30
2018-11-27T17:13:17.112Z,24.80
2018-11-27T17:15:44.133Z,26.60
2018-11-27T17:18:11.141Z,25.83
2018-11-27T17:20:37.484Z,24.63
2018-11-27T17:23:03.800Z,25.27
2018-11-27T17:25:30.114Z,26.60
2018-11-27T17:27:56.402Z,24.77
2018-11-27T17:30:23.443Z,26.33
2018-11-27T17:32:49.686Z,26.23
2018-11-27T17:35:16.710Z,24.37
2018-11-27T17:37:43.041Z,23.80
2018-11-27T17:40:09.329Z,25.90
2018-11-27T17:42:35.600Z,24.63
2018-11-27T17:45:01.965Z,24.97
2018-11-27T17:47:28.191Z,24.67
2018-11-27T17:49:54.448Z,25.20
2018-11-27T17:52:20.722Z,24.57
2018-11-27T17:54:47.022Z,24.53
2018-11-27T17:57:13.284Z,26.23
2018-11-27T17:59:39.527Z,26.23
2018-11-27T18:02:06.596Z,26.53
2018-11-27T18:04:32.916Z,25.27
2018-11-27T18:06:59.230Z,22.73
2018-11-27T18:09:26.261Z,23.87
2018-11-27T18:11:52.523Z,24.73
2018-11-27T18:14:18.801Z,22.53
2018-11-27T18:16:45.041Z,21.70
2018-11-27T18:19:12.069Z,21.20
2018-11-27T18:21:38.413Z,23.50
2018-11-27T18:24:04.720Z,23.37
2018-11-27T18:26:31.025Z,21.13
2018-11-27T18:28:57.317Z,20.57
2018-11-27T18:31:24.317Z,21.70
2018-11-27T18:33:50.805Z,20.37
2018-11-27T18:36:17.091Z,20.07
2018-11-27T18:38:43.399Z,21.10
2018-11-27T18:41:09.656Z,21.80
2018-11-27T18:43:35.940Z,19.20
2018-11-27T18:46:02.211Z,22.73
2018-11-27T18:48:28.481Z,24.03
2018-11-27T18:50:54.762Z,24.33
2018-11-27T18:53:21.012Z,22.27
2018-11-27T18:55:47.276Z,21.10
2018-11-27T18:58:13.547Z,20.63
2018-11-27T19:00:39.797Z,21.57
2018-11-27T19:03:06.829Z,22.20
2018-11-27T19:05:33.121Z,21.00
2018-11-27T19:07:59.368Z,21.23
2018-11-27T19:10:25.657Z,22.73
2018-11-27T19:12:51.966Z,22.10
2018-11-27T19:15:19.034Z,21.20
2018-11-27T19:17:45.341Z,23.90
2018-11-27T19:20:12.400Z,22.53
2018-11-27T19:22:38.681Z,21.93
2018-11-27T19:25:05.008Z,23.43
2018-11-27T19:27:31.286Z,22.87
2018-11-27T19:29:57.568Z,24.20
2018-11-27T19:32:23.830Z,24.30
2018-11-27T19:34:50.850Z,23.60
2018-11-27T19:37:17.918Z,20.27
2018-11-27T19:39:44.920Z,18.80
2018-11-27T19:42:11.181Z,22.10
2018-11-27T19:44:37.443Z,19.33
2018-11-27T19:47:03.760Z,16.97
2018-11-27T19:49:30.043Z,17.00
2018-11-27T19:51:56.737Z,18.30
2018-11-27T19:54:23.044Z,18.10
2018-11-27T19:56:49.271Z,18.10
2018-11-27T19:59:16.295Z,16.90
2018-11-27T20:01:42.543Z,16.87
2018-11-27T20:04:08.801Z,17.23
2018-11-27T20:06:35.156Z,19.07
2018-11-27T20:09:01.520Z,17.80
2018-11-27T20:11:27.789Z,17.43
2018-11-27T20:13:54.082Z,16.37
2018-11-27T20:16:20.416Z,18.43
2018-11-27T20:18:46.712Z,19.07
2018-11-27T20:21:13.025Z,16.93
2018-11-27T20:23:39.371Z,15.30
2018-11-27T20:26:05.706Z,14.93
2018-11-27T20:28:32.035Z,18.63
2018-11-27T20:30:58.333Z,19.93
2018-11-27T20:33:24.585Z,20.60
2018-11-27T20:35:50.928Z,18.70
2018-11-27T20:38:18.110Z,18.20
2018-11-27T20:40:45.138Z,18.37
2018-11-27T20:43:11.404Z,19.87
2018-11-27T20:45:37.693Z,18.47
2018-11-27T20:48:04.012Z,20.03
2018-11-27T20:50:30.397Z,18.00
2018-11-27T20:52:56.719Z,19.40
2018-11-27T20:55:23.029Z,17.43
2018-11-27T20:57:50.073Z,17.23
2018-11-27T21:00:17.288Z,17.57
2018-11-27T21:02:44.602Z,18.73
2018-11-27T21:05:10.639Z,18.20
2018-11-27T21:07:36.920Z,16.60
2018-11-27T21:10:03.412Z,17.37
2018-11-27T21:12:30.469Z,14.10
2018-11-27T21:14:56.793Z,13.63
2018-11-27T21:17:23.445Z,9.17
2018-11-27T21:19:49.700Z,9.53
2018-11-27T21:22:16.075Z,9.53
2018-11-27T21:24:42.352Z,8.83
2018-11-27T21:27:08.730Z,9.13
2018-11-27T21:29:35.122Z,8.60
2018-11-27T21:32:02.189Z,9.17
2018-11-27T21:34:29.211Z,10.17
2018-11-27T21:36:56.491Z,10.67
2018-11-27T21:39:22.777Z,10.47
2018-11-27T21:41:49.071Z,9.93
2018-11-27T21:44:15.411Z,9.83
2018-11-27T21:46:41.672Z,10.23
2018-11-27T21:49:07.934Z,10.27
2018-11-27T21:51:34.203Z,10.43
2018-11-27T21:54:00.491Z,9.70
2018-11-27T21:56:26.782Z,9.60
2018-11-27T21:58:54.293Z,10.50
2018-11-27T22:01:20.533Z,9.90
2018-11-27T22:03:46.783Z,10.03
2018-11-27T22:06:13.125Z,10.53
2018-11-27T22:08:39.400Z,10.67
2018-11-27T22:11:05.673Z,10.30
2018-11-27T22:13:31.922Z,11.37
2018-11-27T22:15:58.195Z,10.47
2018-11-27T22:18:24.433Z,10.33
2018-11-27T22:20:50.960Z,11.33
2018-11-27T22:23:17.249Z,11.00
2018-11-27T22:25:43.518Z,10.73
2018-11-27T22:28:09.832Z,11.57
2018-11-27T22:30:36.155Z,10.73
2018-11-27T22:33:02.440Z,12.70
2018-11-27T22:35:28.761Z,12.83
2018-11-27T22:37:55.341Z,13.80
2018-11-27T22:40:22.385Z,13.33
2018-11-27T22:42:48.652Z,14.27
2018-11-27T22:45:14.932Z,14.50
2018-11-27T22:47:41.957Z,16.60
2018-11-27T22:50:08.259Z,16.10
2018-11-27T22:52:34.535Z,14.40
2018-11-27T22:55:01.529Z,16.13
2018-11-27T22:57:27.776Z,15.93
2018-11-27T22:59:54.806Z,14.90
2018-11-27T23:02:21.049Z,15.00
2018-11-27T23:04:47.299Z,14.80
2018-11-27T23:07:14.364Z,13.70
2018-11-27T23:09:40.642Z,15.03
2018-11-27T23:12:06.908Z,14.57
2018-11-27T23:14:33.155Z,13.60
2018-11-27T23:16:59.400Z,15.03
2018-11-27T23:19:25.916Z,14.97
2018-11-27T23:21:52.232Z,14.90
2018-11-27T23:24:19.243Z,17.00
2018-11-27T23:26:45.615Z,15.50
2018-11-27T23:29:11.888Z,16.53
2018-11-27T23:31:38.126Z,18.57
2018-11-27T23:34:05.146Z,18.63
2018-11-27T23:36:31.398Z,19.97
2018-11-27T23:38:57.635Z,21.47
2018-11-27T23:41:23.874Z,22.13
2018-11-27T23:43:50.880Z,22.90
2018-11-27T23:46:17.496Z,21.00
2018-11-27T23:48:43.784Z,23.20
2018-11-27T23:51:10.055Z,21.57
2018-11-27T23:53:36.332Z,21.17
2018-11-27T23:56:02.633Z,23.07
2018-11-27T23:58:28.864Z,22.53
